sensor_id;sensor_type;location;lat;lon;timestamp;P1;durP1;ratioP1;P2;durP2;ratioP2
85793;SDS011;76242;41.478;22.082;2024-03-07T00:54:22;12.20;;;8.88;;
85793;SDS011;76242;41.478;22.082;2024-03-07T00:57:04;11.32;;;6.63;;
85793;SDS011;76242;41.478;22.082;2024-03-07T01:00:35;11.05;;;6.97;;
85793;SDS011;76242;41.478;22.082;2024-03-07T01:11:11;9.90;;;6.63;;
85793;SDS011;76242;41.478;22.082;2024-03-07T01:13:45;9.05;;;5.90;;
85793;SDS011;76242;41.478;22.082;2024-03-07T01:16:38;14.35;;;9.77;;
85793;SDS011;76242;41.478;22.082;2024-03-07T01:19:54;14.05;;;9.25;;
85793;SDS011;76242;41.478;22.082;2024-03-07T06:04:14;21.00;;;14.80;;
85793;SDS011;76242;41.478;22.082;2024-03-07T06:06:40;22.95;;;14.88;;
85793;SDS011;76242;41.478;22.082;2024-03-07T06:09:10;24.30;;;14.77;;
85793;SDS011;76242;41.478;22.082;2024-03-07T06:48:16;20.05;;;15.18;;
85793;SDS011;76242;41.478;22.082;2024-03-07T08:43:23;8.00;;;2.10;;
85793;SDS011;76242;41.478;22.082;2024-03-07T08:45:51;8.95;;;3.53;;
85793;SDS011;76242;41.478;22.082;2024-03-07T11:17:55;5.70;;;2.40;;
85793;SDS011;76242;41.478;22.082;2024-03-07T13:39:08;11.10;;;3.40;;
85793;SDS011;76242;41.478;22.082;2024-03-07T13:41:39;18.20;;;5.15;;
85793;SDS011;76242;41.478;22.082;2024-03-07T13:44:08;15.85;;;6.97;;
85793;SDS011;76242;41.478;22.082;2024-03-07T13:46:59;34.15;;;17.17;;
85793;SDS011;76242;41.478;22.082;2024-03-07T14:31:56;6.18;;;1.55;;
85793;SDS011;76242;41.478;22.082;2024-03-07T14:34:29;16.83;;;9.13;;
85793;SDS011;76242;41.478;22.082;2024-03-07T14:40:04;5.63;;;1.55;;
85793;SDS011;76242;41.478;22.082;2024-03-07T14:42:47;5.90;;;2.15;;
85793;SDS011;76242;41.478;22.082;2024-03-07T14:45:23;10.40;;;4.57;;
85793;SDS011;76242;41.478;22.082;2024-03-07T14:48:08;6.55;;;1.73;;
85793;SDS011;76242;41.478;22.082;2024-03-07T14:50:37;4.68;;;1.55;;
85793;SDS011;76242;41.478;22.082;2024-03-07T14:53:10;8.52;;;2.88;;
85793;SDS011;76242;41.478;22.082;2024-03-07T14:55:37;8.32;;;2.47;;
85793;SDS011;76242;41.478;22.082;2024-03-07T14:58:30;6.03;;;1.98;;
85793;SDS011;76242;41.478;22.082;2024-03-07T15:01:11;8.07;;;2.30;;
85793;SDS011;76242;41.478;22.082;2024-03-07T15:09:42;2.45;;;1.08;;
85793;SDS011;76242;41.478;22.082;2024-03-07T15:12:08;3.28;;;1.10;;
85793;SDS011;76242;41.478;22.082;2024-03-07T15:14:34;4.78;;;0.93;;
85793;SDS011;76242;41.478;22.082;2024-03-07T15:17:00;3.40;;;0.90;;
85793;SDS011;76242;41.478;22.082;2024-03-07T15:19:26;2.50;;;0.70;;
85793;SDS011;76242;41.478;22.082;2024-03-07T15:21:51;4.93;;;1.17;;
85793;SDS011;76242;41.478;22.082;2024-03-07T15:24:18;3.80;;;1.40;;
85793;SDS011;76242;41.478;22.082;2024-03-07T15:26:46;13.82;;;5.45;;
85793;SDS011;76242;41.478;22.082;2024-03-07T15:29:12;10.23;;;5.72;;
85793;SDS011;76242;41.478;22.082;2024-03-07T15:31:38;4.90;;;1.77;;
85793;SDS011;76242;41.478;22.082;2024-03-07T15:34:05;6.57;;;2.67;;
85793;SDS011;76242;41.478;22.082;2024-03-07T15:36:32;7.90;;;4.13;;
85793;SDS011;76242;41.478;22.082;2024-03-07T15:39:03;10.07;;;3.30;;
85793;SDS011;76242;41.478;22.082;2024-03-07T15:41:40;7.78;;;3.30;;
85793;SDS011;76242;41.478;22.082;2024-03-07T15:44:06;10.90;;;3.20;;
85793;SDS011;76242;41.478;22.082;2024-03-07T15:46:34;6.32;;;2.13;;
85793;SDS011;76242;41.478;22.082;2024-03-07T15:49:02;5.43;;;2.10;;
85793;SDS011;76242;41.478;22.082;2024-03-07T15:51:28;7.88;;;2.17;;
85793;SDS011;76242;41.478;22.082;2024-03-07T15:53:54;8.75;;;2.72;;
85793;SDS011;76242;41.478;22.082;2024-03-07T15:56:26;6.43;;;2.35;;
85793;SDS011;76242;41.478;22.082;2024-03-07T15:58:51;4.93;;;1.85;;
85793;SDS011;76242;41.478;22.082;2024-03-07T16:01:24;10.63;;;4.35;;
85793;SDS011;76242;41.478;22.082;2024-03-07T16:03:50;5.60;;;2.60;;
85793;SDS011;76242;41.478;22.082;2024-03-07T16:06:16;8.32;;;4.03;;
85793;SDS011;76242;41.478;22.082;2024-03-07T16:08:42;10.57;;;4.75;;
85793;SDS011;76242;41.478;22.082;2024-03-07T16:11:18;4.00;;;1.58;;
85793;SDS011;76242;41.478;22.082;2024-03-07T16:13:50;3.45;;;1.73;;
85793;SDS011;76242;41.478;22.082;2024-03-07T16:16:19;30.67;;;18.58;;
85793;SDS011;76242;41.478;22.082;2024-03-07T16:32:00;9.70;;;5.00;;
85793;SDS011;76242;41.478;22.082;2024-03-07T16:34:26;10.77;;;5.68;;
85793;SDS011;76242;41.478;22.082;2024-03-07T16:36:52;13.73;;;6.88;;
85793;SDS011;76242;41.478;22.082;2024-03-07T16:39:19;9.25;;;5.18;;
85793;SDS011;76242;41.478;22.082;2024-03-07T16:41:45;20.55;;;11.88;;
85793;SDS011;76242;41.478;22.082;2024-03-07T16:44:10;13.38;;;7.10;;
85793;SDS011;76242;41.478;22.082;2024-03-07T16:46:36;13.13;;;6.28;;
85793;SDS011;76242;41.478;22.082;2024-03-07T16:49:02;10.73;;;3.83;;
85793;SDS011;76242;41.478;22.082;2024-03-07T16:51:29;4.57;;;2.28;;
85793;SDS011;76242;41.478;22.082;2024-03-07T16:53:55;6.05;;;3.42;;
85793;SDS011;76242;41.478;22.082;2024-03-07T16:56:21;11.80;;;5.63;;
85793;SDS011;76242;41.478;22.082;2024-03-07T16:58:48;5.53;;;2.38;;
85793;SDS011;76242;41.478;22.082;2024-03-07T17:01:15;9.77;;;4.07;;
85793;SDS011;76242;41.478;22.082;2024-03-07T17:03:40;8.75;;;4.43;;
85793;SDS011;76242;41.478;22.082;2024-03-07T17:06:06;13.57;;;6.93;;
85793;SDS011;76242;41.478;22.082;2024-03-07T17:08:36;18.77;;;11.02;;
85793;SDS011;76242;41.478;22.082;2024-03-07T17:11:05;12.43;;;6.03;;
85793;SDS011;76242;41.478;22.082;2024-03-07T17:13:45;17.73;;;10.60;;
85793;SDS011;76242;41.478;22.082;2024-03-07T17:16:15;12.05;;;6.13;;
85793;SDS011;76242;41.478;22.082;2024-03-07T17:18:41;14.07;;;7.32;;
85793;SDS011;76242;41.478;22.082;2024-03-07T17:21:06;16.42;;;9.55;;
85793;SDS011;76242;41.478;22.082;2024-03-07T17:23:35;12.35;;;7.68;;
85793;SDS011;76242;41.478;22.082;2024-03-07T17:26:01;12.25;;;6.82;;
85793;SDS011;76242;41.478;22.082;2024-03-07T17:28:26;18.83;;;11.80;;
85793;SDS011;76242;41.478;22.082;2024-03-07T17:30:54;19.75;;;9.52;;
85793;SDS011;76242;41.478;22.082;2024-03-07T17:33:22;15.27;;;8.85;;
85793;SDS011;76242;41.478;22.082;2024-03-07T17:35:51;16.30;;;9.45;;
85793;SDS011;76242;41.478;22.082;2024-03-07T17:41:17;27.38;;;16.75;;
85793;SDS011;76242;41.478;22.082;2024-03-07T17:43:45;13.63;;;6.93;;
85793;SDS011;76242;41.478;22.082;2024-03-07T17:46:19;14.93;;;8.60;;
85793;SDS011;76242;41.478;22.082;2024-03-07T17:48:56;11.20;;;5.00;;
85793;SDS011;76242;41.478;22.082;2024-03-07T17:51:41;31.08;;;16.33;;
85793;SDS011;76242;41.478;22.082;2024-03-07T17:54:11;35.50;;;18.55;;
85793;SDS011;76242;41.478;22.082;2024-03-07T18:10:49;9.35;;;4.18;;
85793;SDS011;76242;41.478;22.082;2024-03-07T18:13:17;8.02;;;3.17;;
85793;SDS011;76242;41.478;22.082;2024-03-07T18:15:45;6.78;;;3.50;;
85793;SDS011;76242;41.478;22.082;2024-03-07T18:18:14;10.55;;;6.40;;
85793;SDS011;76242;41.478;22.082;2024-03-07T18:20:40;6.75;;;2.38;;
85793;SDS011;76242;41.478;22.082;2024-03-07T18:23:06;6.90;;;2.75;;
85793;SDS011;76242;41.478;22.082;2024-03-07T18:25:33;7.57;;;3.10;;
85793;SDS011;76242;41.478;22.082;2024-03-07T18:28:05;9.63;;;4.13;;
85793;SDS011;76242;41.478;22.082;2024-03-07T18:30:35;5.88;;;2.30;;
85793;SDS011;76242;41.478;22.082;2024-03-07T18:33:08;11.60;;;5.90;;
85793;SDS011;76242;41.478;22.082;2024-03-07T18:35:34;5.80;;;2.35;;
85793;SDS011;76242;41.478;22.082;2024-03-07T18:38:03;14.35;;;7.70;;
85793;SDS011;76242;41.478;22.082;2024-03-07T18:40:32;11.48;;;5.25;;
85793;SDS011;76242;41.478;22.082;2024-03-07T18:43:01;6.72;;;4.00;;
85793;SDS011;76242;41.478;22.082;2024-03-07T18:45:35;6.80;;;3.65;;
85793;SDS011;76242;41.478;22.082;2024-03-07T18:48:01;7.90;;;3.17;;
85793;SDS011;76242;41.478;22.082;2024-03-07T18:50:32;7.80;;;2.55;;
85793;SDS011;76242;41.478;22.082;2024-03-07T18:52:58;8.68;;;4.43;;
85793;SDS011;76242;41.478;22.082;2024-03-07T18:55:24;29.38;;;15.73;;
85793;SDS011;76242;41.478;22.082;2024-03-07T18:57:59;6.32;;;2.42;;
85793;SDS011;76242;41.478;22.082;2024-03-07T19:00:26;3.45;;;1.45;;
85793;SDS011;76242;41.478;22.082;2024-03-07T19:02:54;4.47;;;2.25;;
85793;SDS011;76242;41.478;22.082;2024-03-07T19:05:33;6.75;;;4.50;;
85793;SDS011;76242;41.478;22.082;2024-03-07T19:08:04;18.02;;;12.18;;
85793;SDS011;76242;41.478;22.082;2024-03-07T19:10:46;22.55;;;12.70;;
85793;SDS011;76242;41.478;22.082;2024-03-07T19:23:55;20.58;;;10.68;;
85793;SDS011;76242;41.478;22.082;2024-03-07T19:29:05;20.30;;;10.05;;
85793;SDS011;76242;41.478;22.082;2024-03-07T19:31:30;42.45;;;20.92;;
85793;SDS011;76242;41.478;22.082;2024-03-07T19:33:59;17.23;;;9.40;;
85793;SDS011;76242;41.478;22.082;2024-03-07T19:36:25;16.20;;;11.13;;
85793;SDS011;76242;41.478;22.082;2024-03-07T19:38:51;16.42;;;10.75;;
85793;SDS011;76242;41.478;22.082;2024-03-07T19:41:18;16.33;;;10.27;;
85793;SDS011;76242;41.478;22.082;2024-03-07T19:43:47;21.98;;;13.57;;
85793;SDS011;76242;41.478;22.082;2024-03-07T19:46:16;32.13;;;19.48;;
85793;SDS011;76242;41.478;22.082;2024-03-07T19:48:41;29.88;;;17.42;;
85793;SDS011;76242;41.478;22.082;2024-03-07T19:51:11;33.58;;;24.17;;
85793;SDS011;76242;41.478;22.082;2024-03-07T19:53:36;44.97;;;23.23;;
85793;SDS011;76242;41.478;22.082;2024-03-07T19:56:03;43.70;;;24.40;;
85793;SDS011;76242;41.478;22.082;2024-03-07T19:58:29;25.52;;;15.07;;
85793;SDS011;76242;41.478;22.082;2024-03-07T20:00:55;37.25;;;22.95;;
85793;SDS011;76242;41.478;22.082;2024-03-07T20:03:21;28.45;;;17.42;;
85793;SDS011;76242;41.478;22.082;2024-03-07T20:05:53;38.22;;;15.88;;
85793;SDS011;76242;41.478;22.082;2024-03-07T20:08:18;23.40;;;14.73;;
85793;SDS011;76242;41.478;22.082;2024-03-07T20:10:46;23.50;;;13.77;;
85793;SDS011;76242;41.478;22.082;2024-03-07T20:13:12;42.78;;;18.02;;
85793;SDS011;76242;41.478;22.082;2024-03-07T20:15:39;35.85;;;22.58;;
85793;SDS011;76242;41.478;22.082;2024-03-07T20:18:05;47.05;;;21.92;;
85793;SDS011;76242;41.478;22.082;2024-03-07T20:20:31;26.85;;;18.05;;
85793;SDS011;76242;41.478;22.082;2024-03-07T20:22:59;30.40;;;19.77;;
85793;SDS011;76242;41.478;22.082;2024-03-07T20:25:32;27.55;;;16.70;;
85793;SDS011;76242;41.478;22.082;2024-03-07T20:27:59;33.20;;;18.50;;
85793;SDS011;76242;41.478;22.082;2024-03-07T20:30:25;24.67;;;12.02;;
85793;SDS011;76242;41.478;22.082;2024-03-07T20:32:59;20.25;;;13.45;;
85793;SDS011;76242;41.478;22.082;2024-03-07T20:35:25;22.58;;;14.10;;
85793;SDS011;76242;41.478;22.082;2024-03-07T20:37:51;19.15;;;12.75;;
85793;SDS011;76242;41.478;22.082;2024-03-07T20:40:17;16.23;;;10.48;;
85793;SDS011;76242;41.478;22.082;2024-03-07T20:42:49;20.38;;;12.13;;
85793;SDS011;76242;41.478;22.082;2024-03-07T20:45:17;21.42;;;12.32;;
85793;SDS011;76242;41.478;22.082;2024-03-07T20:47:43;21.35;;;12.93;;
85793;SDS011;76242;41.478;22.082;2024-03-07T20:50:13;23.45;;;11.95;;
85793;SDS011;76242;41.478;22.082;2024-03-07T20:52:47;24.13;;;12.27;;
85793;SDS011;76242;41.478;22.082;2024-03-07T20:55:18;22.40;;;13.05;;
85793;SDS011;76242;41.478;22.082;2024-03-07T20:57:47;21.65;;;14.02;;
85793;SDS011;76242;41.478;22.082;2024-03-07T21:00:14;23.27;;;13.45;;
85793;SDS011;76242;41.478;22.082;2024-03-07T21:02:47;18.00;;;11.15;;
85793;SDS011;76242;41.478;22.082;2024-03-07T21:05:16;20.15;;;11.25;;
85793;SDS011;76242;41.478;22.082;2024-03-07T21:07:51;18.15;;;9.63;;
85793;SDS011;76242;41.478;22.082;2024-03-07T21:10:21;17.73;;;9.35;;
85793;SDS011;76242;41.478;22.082;2024-03-07T21:12:53;14.35;;;8.57;;
85793;SDS011;76242;41.478;22.082;2024-03-07T21:15:21;26.13;;;17.48;;
85793;SDS011;76242;41.478;22.082;2024-03-07T21:17:47;27.92;;;17.42;;
85793;SDS011;76242;41.478;22.082;2024-03-07T21:20:14;71.88;;;28.55;;
85793;SDS011;76242;41.478;22.082;2024-03-07T21:22:46;56.95;;;20.98;;
85793;SDS011;76242;41.478;22.082;2024-03-07T21:25:13;27.15;;;13.90;;
85793;SDS011;76242;41.478;22.082;2024-03-07T21:27:44;25.27;;;13.07;;
85793;SDS011;76242;41.478;22.082;2024-03-07T21:30:17;16.33;;;9.57;;
85793;SDS011;76242;41.478;22.082;2024-03-07T21:32:45;19.95;;;13.85;;
85793;SDS011;76242;41.478;22.082;2024-03-07T21:35:13;15.38;;;9.55;;
85793;SDS011;76242;41.478;22.082;2024-03-07T21:37:41;18.17;;;11.82;;
85793;SDS011;76242;41.478;22.082;2024-03-07T21:40:08;26.98;;;11.32;;
85793;SDS011;76242;41.478;22.082;2024-03-07T21:42:35;19.13;;;11.10;;
85793;SDS011;76242;41.478;22.082;2024-03-07T21:45:02;22.38;;;11.23;;
85793;SDS011;76242;41.478;22.082;2024-03-07T21:47:29;23.83;;;14.35;;
85793;SDS011;76242;41.478;22.082;2024-03-07T21:49:59;16.63;;;9.43;;
85793;SDS011;76242;41.478;22.082;2024-03-07T21:52:25;15.13;;;8.75;;
85793;SDS011;76242;41.478;22.082;2024-03-07T21:54:51;145.75;;;75.60;;
85793;SDS011;76242;41.478;22.082;2024-03-07T21:57:17;116.35;;;50.35;;
85793;SDS011;76242;41.478;22.082;2024-03-07T21:59:42;64.10;;;32.92;;
85793;SDS011;76242;41.478;22.082;2024-03-07T22:02:09;65.80;;;31.00;;
85793;SDS011;76242;41.478;22.082;2024-03-07T22:04:40;54.30;;;27.05;;
85793;SDS011;76242;41.478;22.082;2024-03-07T22:07:06;57.65;;;30.67;;
85793;SDS011;76242;41.478;22.082;2024-03-07T22:09:31;58.88;;;33.78;;
85793;SDS011;76242;41.478;22.082;2024-03-07T22:11:58;48.83;;;27.73;;
85793;SDS011;76242;41.478;22.082;2024-03-07T22:14:27;45.33;;;24.10;;
85793;SDS011;76242;41.478;22.082;2024-03-07T22:16:53;30.35;;;18.13;;
85793;SDS011;76242;41.478;22.082;2024-03-07T22:19:21;22.67;;;15.30;;
85793;SDS011;76242;41.478;22.082;2024-03-07T22:21:47;26.02;;;15.30;;
85793;SDS011;76242;41.478;22.082;2024-03-07T22:24:13;21.08;;;12.13;;
85793;SDS011;76242;41.478;22.082;2024-03-07T22:26:39;47.28;;;25.92;;
85793;SDS011;76242;41.478;22.082;2024-03-07T22:29:08;57.58;;;30.25;;
85793;SDS011;76242;41.478;22.082;2024-03-07T22:31:34;53.13;;;30.67;;
85793;SDS011;76242;41.478;22.082;2024-03-07T22:34:01;71.28;;;25.75;;
85793;SDS011;76242;41.478;22.082;2024-03-07T22:36:28;44.05;;;23.80;;
85793;SDS011;76242;41.478;22.082;2024-03-07T22:38:53;17.88;;;10.77;;
85793;SDS011;76242;41.478;22.082;2024-03-07T22:41:19;17.05;;;10.60;;
85793;SDS011;76242;41.478;22.082;2024-03-07T22:43:45;19.10;;;12.73;;
85793;SDS011;76242;41.478;22.082;2024-03-07T22:46:10;20.42;;;12.70;;
85793;SDS011;76242;41.478;22.082;2024-03-07T22:48:37;46.92;;;24.85;;
85793;SDS011;76242;41.478;22.082;2024-03-07T22:51:06;24.40;;;12.55;;
85793;SDS011;76242;41.478;22.082;2024-03-07T22:53:35;13.48;;;7.38;;
85793;SDS011;76242;41.478;22.082;2024-03-07T22:56:01;22.55;;;12.68;;
85793;SDS011;76242;41.478;22.082;2024-03-07T22:58:27;22.00;;;11.68;;
85793;SDS011;76242;41.478;22.082;2024-03-07T23:00:53;17.55;;;10.15;;
85793;SDS011;76242;41.478;22.082;2024-03-07T23:03:19;21.23;;;12.77;;
85793;SDS011;76242;41.478;22.082;2024-03-07T23:05:44;16.40;;;9.45;;
85793;SDS011;76242;41.478;22.082;2024-03-07T23:08:10;13.23;;;7.85;;
85793;SDS011;76242;41.478;22.082;2024-03-07T23:10:38;9.90;;;5.60;;
85793;SDS011;76242;41.478;22.082;2024-03-07T23:13:04;12.80;;;6.50;;
85793;SDS011;76242;41.478;22.082;2024-03-07T23:15:29;8.45;;;5.00;;
85793;SDS011;76242;41.478;22.082;2024-03-07T23:17:56;11.48;;;6.72;;
85793;SDS011;76242;41.478;22.082;2024-03-07T23:20:24;9.65;;;6.35;;
85793;SDS011;76242;41.478;22.082;2024-03-07T23:22:51;23.33;;;12.52;;
85793;SDS011;76242;41.478;22.082;2024-03-07T23:25:21;26.98;;;13.93;;
85793;SDS011;76242;41.478;22.082;2024-03-07T23:27:47;28.65;;;15.35;;
85793;SDS011;76242;41.478;22.082;2024-03-07T23:30:14;35.67;;;16.42;;
85793;SDS011;76242;41.478;22.082;2024-03-07T23:32:52;36.10;;;22.23;;
85793;SDS011;76242;41.478;22.082;2024-03-07T23:35:18;38.22;;;23.23;;
85793;SDS011;76242;41.478;22.082;2024-03-07T23:37:44;37.83;;;22.83;;
85793;SDS011;76242;41.478;22.082;2024-03-07T23:40:10;35.15;;;20.52;;
85793;SDS011;76242;41.478;22.082;2024-03-07T23:42:42;37.05;;;21.23;;
85793;SDS011;76242;41.478;22.082;2024-03-07T23:45:10;36.45;;;21.60;;
85793;SDS011;76242;41.478;22.082;2024-03-07T23:47:40;52.55;;;26.83;;
85793;SDS011;76242;41.478;22.082;2024-03-07T23:50:06;40.42;;;23.75;;
85793;SDS011;76242;41.478;22.082;2024-03-07T23:52:33;49.88;;;29.98;;
85793;SDS011;76242;41.478;22.082;2024-03-07T23:55:00;46.25;;;26.75;;
85793;SDS011;76242;41.478;22.082;2024-03-07T23:57:26;52.85;;;28.88;;
85793;SDS011;76242;41.478;22.082;2024-03-07T23:59:51;48.30;;;27.05;;
